createdAt,value
2022-10-05T00:02:26.281Z,11.92
2022-10-05T00:17:32.636Z,11.78
2022-10-05T00:32:38.304Z,11.63
2022-10-05T00:47:53.652Z,11.48
2022-10-05T01:03:05.458Z,11.52
2022-10-05T01:18:19.236Z,11.47
2022-10-05T01:33:32.097Z,11.29
2022-10-05T01:48:47.971Z,11.16
2022-10-05T02:03:58.565Z,10.95
2022-10-05T02:19:09.797Z,10.92
2022-10-05T02:34:29.295Z,10.69
2022-10-05T02:49:40.098Z,10.67
2022-10-05T03:04:58.721Z,10.50
2022-10-05T03:20:19.375Z,10.49
2022-10-05T03:35:31.708Z,10.40
2022-10-05T03:50:45.957Z,10.35
2022-10-05T04:05:55.426Z,10.20
2022-10-05T04:21:04.355Z,10.13
2022-10-05T04:36:20.923Z,10.34
2022-10-05T04:51:38.126Z,10.40
2022-10-05T05:06:53.839Z,10.40
2022-10-05T05:22:05.266Z,10.36
2022-10-05T05:37:20.880Z,10.42
2022-10-05T05:52:30.251Z,10.45
2022-10-05T06:07:39.156Z,10.50
2022-10-05T06:22:47.750Z,10.71
2022-10-05T06:38:13.583Z,10.95
2022-10-05T06:53:34.406Z,11.19
2022-10-05T07:09:00.882Z,11.59
2022-10-05T07:24:17.117Z,12.52
2022-10-05T07:39:55.241Z,13.78
2022-10-05T07:55:04.149Z,14.88
2022-10-05T08:10:27.355Z,15.62
2022-10-05T08:25:44.791Z,17.14
2022-10-05T08:41:25.945Z,18.04
2022-10-05T08:56:42.747Z,18.91
2022-10-05T09:12:02.699Z,19.73
2022-10-05T09:27:16.911Z,20.05
2022-10-05T09:42:56.157Z,20.95
2022-10-05T09:58:30.661Z,21.80
2022-10-05T10:13:56.790Z,22.22
2022-10-05T10:45:20.881Z,23.44
2022-10-05T11:00:39.374Z,23.84
2022-10-05T11:16:14.573Z,23.65
2022-10-05T11:32:06.975Z,24.32
2022-10-05T11:47:20.232Z,24.57
2022-10-05T12:03:03.685Z,24.90
2022-10-05T12:18:17.078Z,25.20
2022-10-05T12:33:28.466Z,25.19
2022-10-05T12:48:57.570Z,25.33
2022-10-05T13:04:12.417Z,25.27
2022-10-05T13:19:39.694Z,25.38
2022-10-05T13:34:54.249Z,25.64
2022-10-05T13:50:05.211Z,25.30
2022-10-05T14:05:20.228Z,25.14
2022-10-05T14:20:29.013Z,25.10
2022-10-05T14:35:49.304Z,24.95
2022-10-05T14:50:57.301Z,24.69
2022-10-05T15:06:04.078Z,24.40
2022-10-05T15:21:36.235Z,23.85
2022-10-05T15:36:48.209Z,23.43
2022-10-05T15:52:01.790Z,23.11
2022-10-05T16:07:31.458Z,22.61
2022-10-05T16:22:43.588Z,22.03
2022-10-05T16:37:57.725Z,21.42
2022-10-05T16:53:06.571Z,20.40
2022-10-05T17:08:40.588Z,19.13
2022-10-05T17:23:55.739Z,18.56
2022-10-05T17:39:17.012Z,17.90
2022-10-05T17:54:42.124Z,17.40
2022-10-05T18:10:29.119Z,17.14
2022-10-05T18:25:45.308Z,16.45
2022-10-05T18:40:57.688Z,16.00
2022-10-05T18:56:13.978Z,15.59
2022-10-05T19:11:24.865Z,14.97
2022-10-05T19:26:50.214Z,14.85
2022-10-05T19:42:08.432Z,14.45
2022-10-05T19:57:19.236Z,14.17
2022-10-05T20:12:45.219Z,13.90
2022-10-05T20:27:52.839Z,13.70
2022-10-05T20:42:59.094Z,13.56
2022-10-05T20:58:05.469Z,13.21
2022-10-05T21:13:11.240Z,12.99
2022-10-05T21:28:17.075Z,12.89
2022-10-05T21:43:23.033Z,13.45
2022-10-05T21:58:30.222Z,13.12
2022-10-05T22:13:43.440Z,12.69
2022-10-05T22:28:49.974Z,12.52
2022-10-05T22:43:55.778Z,12.51
2022-10-05T22:59:01.410Z,12.42
2022-10-05T23:14:06.953Z,12.56
2022-10-05T23:29:12.582Z,12.00
2022-10-05T23:44:18.198Z,12.21
2022-10-05T23:59:23.734Z,12.34
